EDT,Max TemperatureF,Mean TemperatureF,Min TemperatureF,Max Dew PointF,MeanDew PointF,Min DewpointF,Max Humidity, Mean Humidity, Min Humidity, Max Sea Level PressureIn, Mean Sea Level PressureIn, Min Sea Level PressureIn, Max VisibilityMiles, Mean VisibilityMiles, Min VisibilityMiles, Max Wind SpeedMPH, Mean Wind SpeedMPH, Max Gust SpeedMPH,PrecipitationIn, CloudCover, Events, WindDirDegrees
2012-9-1,91,82,72,68,63,56,76,57,30,30.06,29.98,29.91,10,10,10,12,5,,0.00,1,,118
2012-9-2,82,76,71,69,66,64,83,72,58,30.09,30.05,30.00,10,10,10,9,5,,0.00,5,,129
2012-9-3,82,76,72,70,65,59,90,74,48,30.15,30.11,30.07,10,10,8,14,5,29,0.00,8,Rain,88
2012-9-4,86,78,71,75,71,65,94,83,62,30.08,29.96,29.83,10,8,5,15,5,22,0.20,7,Rain,161
2012-9-5,84,76,71,75,71,63,94,81,56,29.82,29.79,29.76,10,9,2,14,8,18,0.14,6,Rain,246
2012-9-6,87,78,68,67,65,64,90,72,46,29.90,29.87,29.82,10,10,10,12,3,18,0.00,1,,278
2012-9-7,93,79,68,70,68,66,93,70,45,29.91,29.87,29.82,10,10,7,10,4,20,0.00,1,,173
2012-9-8,87,75,64,74,69,59,90,80,67,29.86,29.72,29.54,10,9,0,21,8,40,0.68,5,Rain,182
2012-9-9,79,70,62,61,56,50,90,65,39,29.89,29.82,29.77,10,10,10,9,3,16,0.00,1,Rain,323
2012-9-10,73,65,57,57,46,40,84,53,34,30.14,29.99,29.89,10,10,10,16,8,25,0.00,1,,334
2012-9-11,77,62,48,49,43,40,83,52,28,30.27,30.23,30.14,10,10,10,9,3,,0.00,0,,333
2012-9-12,84,68,55,55,52,49,86,59,33,30.35,30.32,30.27,10,10,10,12,2,18,0.00,0,,191
2012-9-13,84,70,59,59,56,54,83,63,39,30.37,30.32,30.27,10,10,10,10,3,21,0.00,0,Fog,180
2012-9-14,84,70,59,61,59,56,90,69,42,30.28,30.18,30.08,10,10,10,12,3,18,0.00,0,Fog,181
2012-9-15,73,66,59,61,50,43,81,57,37,30.13,30.09,30.06,10,10,10,18,9,26,0.02,2,Rain,314
2012-9-16,77,64,53,50,47,43,83,56,34,30.13,30.08,30.02,10,10,10,10,3,,0.00,1,Fog,293
2012-9-17,78,66,53,57,50,47,83,58,34,30.11,30.06,30.01,10,10,10,12,2,,0.00,0,,177
2012-9-18,80,73,69,70,67,59,93,84,68,30.01,29.77,29.62,10,8,1,26,13,48,0.51,8,Rain,177
2012-9-19,71,65,55,67,48,39,93,59,31,30.18,29.97,29.73,10,10,10,17,10,29,0.00,4,Rain,324
2012-9-20,70,60,50,55,51,45,83,69,59,30.21,30.15,30.11,10,10,10,12,4,,0.00,4,,76
2012-9-21,75,65,57,56,53,49,87,66,44,30.11,30.06,30.01,10,10,10,9,4,16,0.00,3,,143
2012-9-22,78,67,57,68,59,54,94,80,60,30.00,29.90,29.78,10,10,4,15,4,23,0.09,5,Rain,162
2012-9-23,69,62,53,62,46,38,90,59,33,30.11,30.01,29.86,10,10,9,14,7,20,0.00,2,Fog,323
2012-9-24,69,59,50,46,41,35,83,55,31,30.16,30.12,30.09,10,10,10,12,4,,0.00,2,,278
2012-9-25,75,60,46,54,46,40,83,59,35,30.19,30.14,30.11,10,10,10,16,5,22,0.00,0,,196
2012-9-26,77,70,64,61,58,54,79,68,57,30.13,30.06,30.00,10,10,10,14,8,18,0.01,7,Rain,218
2012-9-27,77,70,64,63,59,54,93,70,51,30.16,30.11,30.04,10,10,9,8,4,17,0.06,5,Rain,348
2012-9-28,72,66,60,64,62,55,100,87,73,30.16,30.02,29.93,10,7,3,8,4,,0.30,8,Rain,32
2012-9-29,64,60,57,56,54,52,88,77,64,29.94,29.90,29.86,10,10,10,8,5,,0.00,8,,338
2012-9-30,70,62,55,54,50,45,88,73,45,29.87,29.82,29.76,10,10,10,10,4,,0.13,4,,302